PASM Airport Information

Runway Information
Runway 06 Length 1900 ft width 60 ft
Elevation 311 ft Threshold 0 ft Heading 77
Runway 24 Length 1900 ft Width 60 ft
Elevation 301 ft Threshold 375 ft Heading 257
Runway 17 Length 6003 ft width 150 ft
Elevation 282 ft Threshold 0 ft Heading 182
Runway 35 Length 6003 ft Width 150 ft
Elevation 303 ft Threshold 0 ft Heading 2
Airport Frequencies
Type AWOS Name AWOS 3 Frequency 128.7 MHZ
Type CNTR Name ANCHORAGE Frequency 124 MHZ
Type CTAF Name CTAF Frequency 122.3 MHZ
Type FSS Name KENAI RDO Frequency 122.35 MHZ
Type MISC Name TWEB Frequency 23 MHZ
Airport Navaids
Type NDB Name Saint Marys Frequency 230 KHZ
Airport Weather Information & NOTAM
ADDS - METARS form results

(1438 UTC 22 July 2018)
 
METAR text: PASM 221402Z AUTO 10005KT 10SM BKN050 OVC070 14/13 A3012 RMK AO2 SLP214 T01390128
Conditions at: PASM (SAINT MARYS , AK, US) observed 1402 UTC 22 July 2018
Temperature: 13.9°C (57°F)
Dewpoint: 12.8°C (55°F) [RH = 93%]
Pressure (altimeter): 30.12 inches Hg (1020.1 mb)
[Sea-level pressure: 1021.4 mb]
Winds: from the E (100 degrees) at 6 MPH (5 knots; 2.6 m/s)
Visibility: 10 or more miles (16+ km)
Ceiling: 5000 feet AGL
Clouds: broken clouds at 5000 feet AGL
overcast cloud deck at 7000 feet AGL
Weather: automated observation with no human augmentation;
there may or may not be significant weather present at this time